Time;durP1;ratioP1;P1;durP2;ratioP2;P2;SDS_P1;SDS_P2;PMS_P1;PMS_P2;Temp;Humidity;BMP_temperature;BMP_pressure;BME280_temperature;BME280_humidity;BME280_pressure;Samples;Min_cycle;Max_cycle;Signal;HPM_P1;HPM_P2
2022/07/25 00:00:26;;;;;;;11.23;8.02;;;27.10;99.90;;;;;;4134451;28;20068;-62
2022/07/25 00:02:32;;;;;;;9.88;7.53;;;27.10;99.90;;;;;;4133688;28;20046;-62
2022/07/25 00:04:39;;;;;;;11.55;7.63;;;27.10;99.90;;;;;;4135702;28;20481;-62
2022/07/25 00:06:46;;;;;;;11.57;7.35;;;27.10;99.90;;;;;;4134326;28;20046;-62
2022/07/25 00:08:50;;;;;;;11.10;6.85;;;27.10;99.90;;;;;;4136324;28;20080;-62
2022/07/25 00:10:57;;;;;;;7.47;6.70;;;27.20;99.90;;;;;;4135660;28;20077;-62
2022/07/25 00:13:04;;;;;;;11.35;6.78;;;27.20;99.90;;;;;;4134030;28;20049;-62
2022/07/25 00:15:08;;;;;;;9.43;7.05;;;27.30;99.90;;;;;;4135772;28;20096;-62
2022/07/25 00:17:15;;;;;;;11.73;6.88;;;27.40;99.90;;;;;;4135056;28;20141;-62
2022/07/25 00:19:22;;;;;;;20.50;14.82;;;27.40;99.90;;;;;;4133094;28;20054;-62
2022/07/25 00:21:27;;;;;;;17.10;8.77;;;27.50;99.90;;;;;;4135065;28;20060;-65
2022/07/25 00:23:31;;;;;;;16.50;11.93;;;27.60;99.90;;;;;;4128711;28;20410;-64
2022/07/25 00:25:38;;;;;;;16.50;12.60;;;27.70;99.90;;;;;;4135889;28;20144;-64
2022/07/25 00:27:43;;;;;;;18.35;12.20;;;27.80;99.90;;;;;;4131464;28;20065;-64
2022/07/25 00:29:49;;;;;;;12.52;8.70;;;27.80;99.90;;;;;;4135114;28;20046;-64
2022/07/25 00:31:56;;;;;;;10.48;8.10;;;27.80;99.90;;;;;;4133171;28;20539;-64
2022/07/25 00:34:00;;;;;;;14.73;9.00;;;27.80;99.90;;;;;;4132010;28;20045;-65
2022/07/25 00:36:07;;;;;;;22.15;15.20;;;27.90;99.90;;;;;;4133350;28;20092;-66
2022/07/25 00:38:14;;;;;;;39.75;12.32;;;27.90;99.90;;;;;;4134173;28;20074;-65
2022/07/25 00:40:19;;;;;;;26.70;13.32;;;28.00;99.90;;;;;;4133757;28;20405;-64
2022/07/25 00:42:25;;;;;;;13.52;9.57;;;28.10;99.90;;;;;;4128342;28;20050;-64
2022/07/25 00:44:32;;;;;;;14.50;9.85;;;28.20;99.90;;;;;;4134144;28;20050;-64
2022/07/25 00:46:39;;;;;;;25.92;18.85;;;28.20;99.90;;;;;;4131464;28;20046;-63
2022/07/25 00:48:45;;;;;;;20.80;14.20;;;28.30;99.90;;;;;;4165559;28;20527;-63
2022/07/25 00:50:52;;;;;;;24.17;13.73;;;28.30;99.90;;;;;;4129658;28;20054;-65
2022/07/25 00:52:57;;;;;;;23.90;16.02;;;28.20;99.90;;;;;;4126122;28;20042;-65
2022/07/25 00:55:04;;;;;;;15.73;10.60;;;28.40;99.90;;;;;;4127839;28;20058;-63
2022/07/25 00:57:10;;;;;;;42.95;11.50;;;28.40;99.90;;;;;;4127745;28;20452;-63
2022/07/25 00:59:16;;;;;;;25.13;12.13;;;28.40;99.90;;;;;;4128497;28;20386;-64
2022/07/25 01:01:20;;;;;;;25.92;14.25;;;28.50;99.90;;;;;;4129271;28;20046;-64
2022/07/25 01:03:25;;;;;;;20.80;12.57;;;28.60;99.90;;;;;;4161838;28;20447;-64
2022/07/25 01:05:30;;;;;;;23.30;11.20;;;28.60;99.90;;;;;;4129262;28;20186;-64
2022/07/25 01:07:37;;;;;;;20.00;9.82;;;28.70;99.90;;;;;;4130591;28;20585;-64
2022/07/25 01:09:43;;;;;;;19.13;9.65;;;28.80;99.90;;;;;;4130601;28;20112;-64
2022/07/25 01:11:48;;;;;;;29.27;11.20;;;28.80;99.90;;;;;;4130193;28;20081;-64
2022/07/25 01:13:54;;;;;;;39.65;15.10;;;28.90;99.90;;;;;;4130641;28;20521;-64
2022/07/25 01:16:01;;;;;;;19.38;9.18;;;28.90;99.90;;;;;;4130436;28;20125;-64
2022/07/25 01:18:06;;;;;;;16.20;7.93;;;29.00;99.90;;;;;;4130079;28;20405;-64
2022/07/25 01:20:17;;;;;;;12.77;7.30;;;29.00;99.90;;;;;;4130019;28;20137;-63
2022/07/25 01:22:24;;;;;;;12.63;8.13;;;29.10;99.90;;;;;;4130477;28;20053;-62
2022/07/25 01:24:34;;;;;;;15.98;6.47;;;29.10;99.90;;;;;;4130491;28;20250;-63
2022/07/25 01:26:40;;;;;;;17.55;6.45;;;29.10;99.90;;;;;;4130365;28;20074;-62
2022/07/25 01:28:46;;;;;;;11.68;6.25;;;29.10;99.90;;;;;;4116168;28;20043;-63
2022/07/25 01:30:51;;;;;;;9.73;5.30;;;29.20;99.90;;;;;;4114654;28;20462;-63
2022/07/25 01:32:57;;;;;;;11.95;5.60;;;29.30;99.90;;;;;;4112153;28;20046;-63
2022/07/25 01:35:09;;;;;;;11.70;5.22;;;29.40;99.90;;;;;;4127214;28;20505;-63
2022/07/25 01:37:21;;;;;;;12.13;5.30;;;29.50;99.90;;;;;;4127299;28;20050;-63
2022/07/25 01:39:26;;;;;;;12.95;5.05;;;29.60;99.90;;;;;;4118505;28;20038;-63
2022/07/25 01:41:30;;;;;;;10.32;4.70;;;29.60;99.90;;;;;;4113532;28;20177;-62
2022/07/25 01:43:35;;;;;;;10.20;5.28;;;29.70;99.90;;;;;;4078639;28;20080;-64
2022/07/25 01:45:40;;;;;;;9.35;4.10;;;29.70;99.90;;;;;;4105532;28;20062;-64
2022/07/25 01:47:45;;;;;;;12.60;4.28;;;29.70;99.90;;;;;;4119180;28;20070;-64
2022/07/25 01:49:50;;;;;;;11.68;4.60;;;29.70;99.90;;;;;;4121019;28;20050;-63
2022/07/25 01:51:56;;;;;;;10.18;4.78;;;29.80;99.90;;;;;;4125032;28;20082;-64
2022/07/25 01:54:03;;;;;;;7.72;4.47;;;29.90;99.90;;;;;;4120444;28;20073;-63
2022/07/25 01:56:12;;;;;;;14.30;4.53;;;29.90;99.90;;;;;;4117551;28;20764;-63
2022/07/25 01:58:19;;;;;;;9.77;4.32;;;29.90;99.90;;;;;;4117944;28;20056;-63
2022/07/25 02:00:25;;;;;;;6.72;4.07;;;30.00;99.90;;;;;;4109332;28;20046;-63
2022/07/25 02:02:30;;;;;;;10.07;4.60;;;30.00;99.90;;;;;;4119040;28;20050;-63
2022/07/25 02:04:36;;;;;;;7.63;3.78;;;30.10;99.90;;;;;;4125321;28;20584;-63
2022/07/25 02:06:43;;;;;;;11.13;3.90;;;30.10;99.90;;;;;;4107293;28;20054;-63
2022/07/25 02:08:48;;;;;;;11.60;4.05;;;30.20;99.90;;;;;;4121921;28;20141;-63
2022/07/25 02:10:54;;;;;;;11.57;4.50;;;30.20;99.90;;;;;;4122750;28;20074;-65
2022/07/25 02:13:01;;;;;;;9.80;3.95;;;30.20;99.90;;;;;;4126590;28;20050;-64
2022/07/25 02:15:06;;;;;;;9.18;4.20;;;30.40;99.90;;;;;;4125788;28;20149;-63
2022/07/25 02:17:13;;;;;;;7.53;3.97;;;30.40;99.90;;;;;;4126644;28;20055;-63
2022/07/25 02:19:19;;;;;;;8.23;3.38;;;30.40;99.90;;;;;;4126280;28;20050;-63
2022/07/25 02:21:24;;;;;;;6.55;3.55;;;30.40;99.90;;;;;;4126124;28;20053;-64
2022/07/25 02:23:31;;;;;;;6.13;3.65;;;30.60;99.90;;;;;;4126688;28;20061;-63
2022/07/25 02:25:38;;;;;;;7.53;3.83;;;30.60;99.90;;;;;;4126784;28;20120;-64
2022/07/25 02:27:43;;;;;;;6.55;3.30;;;30.70;99.90;;;;;;4126315;28;20095;-64
2022/07/25 02:29:47;;;;;;;8.32;3.70;;;30.80;99.90;;;;;;4126328;28;20553;-65
2022/07/25 02:31:51;;;;;;;9.45;3.50;;;30.90;99.90;;;;;;4126225;28;20079;-63
2022/07/25 02:33:56;;;;;;;5.97;3.30;;;30.90;99.90;;;;;;4126137;28;20054;-63
2022/07/25 02:36:03;;;;;;;7.70;3.47;;;31.00;99.90;;;;;;4126627;28;20497;-63
2022/07/25 02:38:09;;;;;;;8.25;3.38;;;31.00;99.90;;;;;;4126481;28;20038;-63
2022/07/25 02:40:14;;;;;;;8.05;3.08;;;31.20;99.90;;;;;;4126208;28;20105;-62
2022/07/25 02:42:22;;;;;;;5.40;2.92;;;31.30;99.90;;;;;;4126470;28;20153;-63
2022/07/25 02:44:30;;;;;;;7.20;3.20;;;31.30;99.90;;;;;;4107138;28;20506;-63
2022/07/25 02:46:34;;;;;;;6.13;3.40;;;31.50;99.90;;;;;;4126220;28;20579;-63
2022/07/25 02:48:40;;;;;;;8.25;3.95;;;31.60;99.90;;;;;;4126064;28;20058;-63
2022/07/25 02:50:47;;;;;;;5.13;3.15;;;31.60;99.90;;;;;;4111029;28;20286;-63
2022/07/25 02:52:52;;;;;;;7.95;3.55;;;31.60;99.90;;;;;;4125668;28;20576;-65
2022/07/25 02:54:58;;;;;;;4.57;3.13;;;31.60;99.90;;;;;;4125878;28;20043;-64
2022/07/25 02:57:13;;;;;;;8.02;3.20;;;31.60;99.90;;;;;;4126208;28;20129;-62
2022/07/25 02:59:18;;;;;;;7.50;3.45;;;31.40;99.90;;;;;;4126040;28;20077;-64
2022/07/25 03:01:24;;;;;;;6.43;3.00;;;31.30;99.90;;;;;;4125986;28;20482;-63
2022/07/25 03:03:31;;;;;;;7.20;2.78;;;31.30;99.90;;;;;;4125614;28;20046;-63
2022/07/25 03:05:37;;;;;;;7.20;3.13;;;31.40;99.90;;;;;;4124685;28;20529;-62
2022/07/25 03:07:44;;;;;;;5.60;3.10;;;31.40;99.90;;;;;;4122884;28;20107;-62
2022/07/25 03:09:50;;;;;;;13.20;3.47;;;31.40;99.90;;;;;;4125245;28;20096;-62
2022/07/25 03:11:55;;;;;;;6.55;3.22;;;31.50;99.90;;;;;;4125920;28;20042;-62
2022/07/25 03:14:02;;;;;;;7.28;3.80;;;31.50;99.90;;;;;;4124717;28;20043;-63
2022/07/25 03:16:09;;;;;;;7.57;3.00;;;31.60;99.90;;;;;;4116911;28;20093;-63
2022/07/25 03:18:15;;;;;;;4.63;3.10;;;31.70;99.90;;;;;;4113688;28;20251;-63
2022/07/25 03:20:21;;;;;;;7.07;3.55;;;31.80;99.90;;;;;;4123753;28;20042;-63
2022/07/25 03:22:28;;;;;;;6.05;3.38;;;31.90;99.90;;;;;;4106445;28;20086;-63
2022/07/25 03:24:32;;;;;;;6.07;3.78;;;32.00;99.90;;;;;;4126109;28;20501;-63
2022/07/25 03:26:37;;;;;;;11.45;4.00;;;32.10;99.90;;;;;;4126247;28;20516;-63
2022/07/25 03:28:44;;;;;;;15.45;6.22;;;32.10;99.90;;;;;;4126084;28;20053;-63
2022/07/25 03:30:50;;;;;;;9.95;5.13;;;32.10;99.90;;;;;;4125707;28;20140;-63
2022/07/25 03:32:55;;;;;;;12.65;8.25;;;32.20;99.90;;;;;;4124503;28;20137;-63
2022/07/25 03:35:01;;;;;;;15.02;8.38;;;32.30;99.90;;;;;;4125868;28;20050;-63
2022/07/25 03:37:07;;;;;;;11.45;7.85;;;32.30;99.90;;;;;;4126349;28;20043;-63
2022/07/25 03:39:13;;;;;;;10.48;7.15;;;32.30;99.90;;;;;;4115795;28;20472;-63
2022/07/25 03:41:17;;;;;;;14.43;8.13;;;32.40;99.90;;;;;;4109966;28;20138;-63
2022/07/25 03:43:22;;;;;;;11.40;7.55;;;32.40;99.90;;;;;;4109413;28;20051;-64
2022/07/25 03:45:29;;;;;;;9.40;6.22;;;32.50;99.90;;;;;;4119856;28;20548;-63
2022/07/25 03:47:33;;;;;;;10.20;5.88;;;32.50;99.90;;;;;;4124829;28;20085;-63
2022/07/25 03:49:40;;;;;;;8.85;5.20;;;32.70;99.90;;;;;;4125367;28;20046;-63
2022/07/25 03:51:46;;;;;;;5.82;3.50;;;32.70;99.90;;;;;;4124837;28;20573;-63
2022/07/25 03:54:00;;;;;;;5.50;3.53;;;32.90;99.90;;;;;;4125324;28;20100;-63
2022/07/25 03:56:06;;;;;;;4.70;2.95;;;32.90;99.90;;;;;;4125289;28;20057;-63
2022/07/25 03:58:13;;;;;;;3.67;2.00;;;32.90;99.90;;;;;;4125546;28;20046;-64
2022/07/25 04:00:20;;;;;;;4.32;2.25;;;32.90;99.90;;;;;;4124996;28;20047;-64
2022/07/25 04:02:25;;;;;;;3.97;2.70;;;32.90;99.90;;;;;;4125037;28;20058;-63
2022/07/25 04:04:29;;;;;;;3.65;2.70;;;33.00;99.90;;;;;;4124909;28;20105;-63
2022/07/25 04:06:36;;;;;;;4.32;2.90;;;33.00;99.90;;;;;;4124896;28;20466;-64
2022/07/25 04:08:41;;;;;;;4.47;2.40;;;33.00;99.90;;;;;;4126964;28;20058;-63
2022/07/25 04:10:48;;;;;;;4.32;2.80;;;33.00;99.90;;;;;;4126752;28;20102;-64
2022/07/25 04:12:54;;;;;;;2.35;2.08;;;33.20;99.90;;;;;;4127947;28;20046;-64
2022/07/25 04:15:00;;;;;;;5.65;2.47;;;33.20;99.90;;;;;;4128207;28;20068;-64
2022/07/25 04:17:05;;;;;;;9.52;7.45;;;33.20;99.90;;;;;;4127904;28;20042;-64
2022/07/25 04:19:12;;;;;;;23.13;18.95;;;33.20;99.90;;;;;;4127643;28;20049;-62
2022/07/25 04:21:17;;;;;;;36.45;29.08;;;33.20;99.90;;;;;;4127356;28;20561;-62
2022/07/25 04:23:24;;;;;;;30.33;25.70;;;33.20;99.90;;;;;;4125734;28;20548;-62
2022/07/25 04:25:28;;;;;;;15.18;12.23;;;33.20;99.90;;;;;;4126940;28;20054;-63
2022/07/25 04:27:34;;;;;;;9.45;7.20;;;33.30;99.90;;;;;;4125918;28;20057;-63
2022/07/25 04:29:41;;;;;;;4.93;3.75;;;33.30;99.90;;;;;;4127490;28;20054;-62
2022/07/25 04:31:45;;;;;;;3.10;2.35;;;33.30;99.90;;;;;;4127525;28;20046;-62
2022/07/25 04:33:49;;;;;;;4.05;2.38;;;33.30;99.90;;;;;;4127826;28;20061;-63
2022/07/25 04:35:56;;;;;;;4.20;2.10;;;33.30;99.90;;;;;;4127639;28;20038;-63
2022/07/25 04:38:02;;;;;;;3.47;2.20;;;33.20;99.90;;;;;;4159139;28;20057;-62
2022/07/25 04:40:15;;;;;;;3.72;1.92;;;33.30;99.90;;;;;;4128053;28;20046;-63
2022/07/25 04:42:22;;;;;;;4.20;2.20;;;33.30;99.90;;;;;;4136095;28;20043;-62
2022/07/25 04:44:28;;;;;;;2.75;1.85;;;33.40;99.90;;;;;;4131135;28;20057;-63
2022/07/25 04:46:33;;;;;;;1.98;1.70;;;33.60;99.90;;;;;;4127277;28;20042;-62
2022/07/25 04:48:38;;;;;;;2.85;1.90;;;33.60;99.80;;;;;;4126071;28;20046;-62
2022/07/25 04:50:44;;;;;;;3.30;1.92;;;33.60;99.80;;;;;;4126828;28;20054;-62
2022/07/25 04:52:48;;;;;;;3.88;1.90;;;33.70;99.90;;;;;;4125651;28;20497;-63
2022/07/25 04:54:53;;;;;;;14.02;11.55;;;33.70;99.50;;;;;;4127425;28;20124;-62
2022/07/25 04:56:58;;;;;;;7.22;6.45;;;33.70;99.00;;;;;;4158032;28;20139;-63
2022/07/25 04:59:03;;;;;;;22.30;19.45;;;33.70;99.70;;;;;;4126820;28;20129;-63
2022/07/25 05:01:11;;;;;;;22.30;18.98;;;34.00;99.50;;;;;;4126727;28;20524;-62
2022/07/25 05:03:18;;;;;;;13.30;9.73;;;34.10;99.10;;;;;;4127134;28;20074;-63
2022/07/25 05:05:23;;;;;;;4.72;2.97;;;33.90;99.00;;;;;;4126683;28;20050;-63
2022/07/25 05:07:32;;;;;;;3.72;2.50;;;33.60;98.80;;;;;;4126958;28;20571;-63
2022/07/25 05:09:38;;;;;;;3.55;2.25;;;33.80;99.30;;;;;;4126905;28;20121;-63
2022/07/25 05:11:43;;;;;;;4.95;2.15;;;34.00;99.00;;;;;;4126013;28;20580;-63
2022/07/25 05:13:55;;;;;;;8.35;2.40;;;34.10;98.80;;;;;;4127046;28;20050;-63
2022/07/25 05:16:02;;;;;;;4.25;1.67;;;34.20;98.00;;;;;;4125501;28;20106;-64
2022/07/25 05:18:07;;;;;;;2.45;1.40;;;34.30;97.90;;;;;;4126641;28;20517;-62
2022/07/25 05:20:13;;;;;;;3.10;1.70;;;34.50;97.30;;;;;;4126612;28;20610;-62
2022/07/25 05:22:20;;;;;;;2.75;1.50;;;34.60;96.40;;;;;;4126512;28;20085;-62
2022/07/25 05:24:37;;;;;;;1.42;1.33;;;34.70;96.50;;;;;;4142059;28;20123;-62
2022/07/25 05:26:44;;;;;;;2.25;1.50;;;34.80;94.70;;;;;;4113856;28;20061;-63
2022/07/25 05:28:50;;;;;;;4.55;1.48;;;34.70;95.30;;;;;;4114338;28;20113;-63
2022/07/25 05:30:55;;;;;;;2.83;1.27;;;34.80;95.60;;;;;;4113687;28;20479;-61
2022/07/25 05:33:01;;;;;;;2.17;1.50;;;34.80;95.50;;;;;;4113947;28;20132;-61
2022/07/25 05:35:08;;;;;;;1.60;1.50;;;34.80;94.30;;;;;;4128976;28;20452;-63
2022/07/25 05:37:13;;;;;;;2.75;1.40;;;34.70;95.40;;;;;;4129835;28;20070;-63
2022/07/25 05:39:20;;;;;;;2.10;1.40;;;34.90;95.40;;;;;;4117720;28;20486;-63
2022/07/25 05:41:24;;;;;;;3.78;1.40;;;34.90;94.70;;;;;;4112559;28;20105;-62
2022/07/25 05:43:29;;;;;;;2.90;1.30;;;35.10;94.00;;;;;;4111700;28;20517;-62
2022/07/25 05:45:35;;;;;;;3.55;1.50;;;35.20;94.50;;;;;;4114023;28;20055;-62
2022/07/25 05:47:40;;;;;;;2.70;1.40;;;35.30;94.90;;;;;;4112834;28;20102;-62
2022/07/25 05:49:45;;;;;;;3.17;1.63;;;35.40;95.00;;;;;;4143140;28;20076;-62
2022/07/25 05:51:49;;;;;;;2.92;1.58;;;35.30;94.90;;;;;;4136833;28;20051;-62
2022/07/25 05:53:53;;;;;;;2.47;1.50;;;35.30;94.90;;;;;;4129596;28;20054;-62
2022/07/25 05:55:58;;;;;;;2.50;1.52;;;35.30;94.30;;;;;;4129616;28;20042;-62
2022/07/25 05:58:05;;;;;;;3.47;1.55;;;35.20;94.50;;;;;;4129935;28;20038;-62
2022/07/25 06:00:10;;;;;;;3.72;1.63;;;35.10;94.60;;;;;;4129700;28;20046;-62
2022/07/25 06:02:14;;;;;;;1.83;1.10;;;35.30;94.40;;;;;;4129840;28;20057;-62
2022/07/25 06:04:21;;;;;;;3.00;1.60;;;35.40;93.90;;;;;;4129735;28;20046;-62
2022/07/25 06:06:31;;;;;;;2.00;1.40;;;35.40;93.80;;;;;;4129665;28;20058;-62
2022/07/25 06:08:36;;;;;;;3.15;1.50;;;35.50;93.90;;;;;;4129908;28;20120;-62
2022/07/25 06:10:41;;;;;;;2.63;1.55;;;35.70;93.20;;;;;;4129535;28;20597;-62
2022/07/25 06:12:47;;;;;;;3.00;1.77;;;35.80;93.30;;;;;;4129617;28;20126;-62
2022/07/25 06:14:52;;;;;;;1.73;1.45;;;35.80;93.30;;;;;;4129752;28;20561;-62
2022/07/25 06:16:57;;;;;;;1.73;1.48;;;35.90;93.00;;;;;;4129662;28;20504;-62
2022/07/25 06:19:01;;;;;;;1.60;1.48;;;35.80;93.00;;;;;;4128180;28;20615;-62
2022/07/25 06:21:06;;;;;;;1.70;1.30;;;35.80;93.00;;;;;;4129451;28;20042;-62
2022/07/25 06:23:11;;;;;;;2.90;1.60;;;35.70;93.30;;;;;;4129644;28;20077;-62
2022/07/25 06:25:15;;;;;;;2.47;1.58;;;35.60;93.30;;;;;;4129382;28;20104;-62
2022/07/25 06:27:20;;;;;;;3.15;1.40;;;35.60;94.20;;;;;;4129699;28;20046;-62
2022/07/25 06:29:33;;;;;;;1.75;1.50;;;35.70;93.30;;;;;;4129253;28;20152;-62
2022/07/25 06:31:38;;;;;;;2.38;1.60;;;35.90;93.60;;;;;;4126957;28;20050;-62
2022/07/25 06:33:43;;;;;;;1.63;1.30;;;36.20;92.90;;;;;;4144005;28;20425;-61
2022/07/25 06:35:50;;;;;;;3.67;1.30;;;36.20;93.30;;;;;;4129308;28;20066;-61
2022/07/25 06:37:56;;;;;;;2.80;1.60;;;36.30;92.50;;;;;;4129470;28;20561;-61
2022/07/25 06:40:01;;;;;;;2.05;1.33;;;36.20;92.80;;;;;;4129230;28;20047;-61
2022/07/25 06:42:08;;;;;;;2.35;1.50;;;36.30;92.80;;;;;;4129293;28;20065;-61
2022/07/25 06:44:14;;;;;;;1.60;1.23;;;36.20;91.90;;;;;;4129120;28;20061;-61
2022/07/25 06:46:18;;;;;;;3.13;1.45;;;36.20;92.00;;;;;;4129319;28;20509;-62
2022/07/25 06:48:23;;;;;;;2.20;1.50;;;36.10;92.20;;;;;;4129018;28;20054;-62
2022/07/25 06:50:30;;;;;;;2.90;1.60;;;36.10;92.30;;;;;;4128927;28;20054;-61
2022/07/25 06:52:34;;;;;;;2.47;1.67;;;36.10;92.70;;;;;;4128989;28;20414;-61
2022/07/25 06:54:39;;;;;;;3.50;1.50;;;36.20;92.30;;;;;;4128107;28;20050;-61
2022/07/25 06:56:44;;;;;;;2.72;1.80;;;36.40;91.80;;;;;;4128255;28;20046;-61
2022/07/25 06:58:48;;;;;;;2.10;1.58;;;36.40;91.80;;;;;;4129137;28;20054;-60
2022/07/25 07:00:55;;;;;;;1.90;1.42;;;36.30;91.70;;;;;;4128821;28;20748;-60
2022/07/25 07:03:02;;;;;;;1.88;1.40;;;36.40;92.00;;;;;;4129224;28;20481;-61
2022/07/25 07:05:08;;;;;;;2.25;1.45;;;36.40;91.80;;;;;;4128829;28;20046;-61
2022/07/25 07:07:15;;;;;;;1.98;1.50;;;36.30;91.50;;;;;;4128923;28;20066;-61
2022/07/25 07:09:22;;;;;;;1.55;1.20;;;36.30;91.40;;;;;;4129223;28;20054;-61
2022/07/25 07:11:26;;;;;;;2.35;1.25;;;36.40;91.40;;;;;;4128964;28;20399;-61
2022/07/25 07:13:33;;;;;;;2.15;1.50;;;36.50;90.60;;;;;;4128942;28;20054;-62
2022/07/25 07:15:40;;;;;;;3.67;1.75;;;36.40;91.20;;;;;;4128816;28;20046;-62
2022/07/25 07:17:44;;;;;;;1.98;1.52;;;36.60;91.40;;;;;;4159678;28;20500;-62
2022/07/25 07:19:49;;;;;;;3.20;1.65;;;36.60;90.90;;;;;;4128803;28;20061;-62
2022/07/25 07:21:55;;;;;;;2.05;1.40;;;36.70;90.70;;;;;;4128857;28;20038;-62
2022/07/25 07:24:00;;;;;;;3.35;1.50;;;36.70;90.00;;;;;;4128962;28;20129;-62
2022/07/25 07:26:15;;;;;;;3.13;1.35;;;36.50;90.60;;;;;;4121637;28;20051;-62
2022/07/25 07:28:19;;;;;;;1.55;1.45;;;36.50;91.00;;;;;;4125314;28;20061;-62
2022/07/25 07:30:24;;;;;;;3.00;1.40;;;36.60;90.60;;;;;;4124689;28;20069;-62
2022/07/25 07:32:48;;;;;;;1.90;1.58;;;36.70;90.30;;;;;;4126169;28;20533;-62
2022/07/25 07:34:53;;;;;;;2.20;1.30;;;36.70;90.40;;;;;;4126541;28;20627;-62
2022/07/25 07:36:57;;;;;;;3.03;1.50;;;36.80;90.70;;;;;;4125280;28;20046;-62
2022/07/25 07:39:03;;;;;;;3.45;1.50;;;36.80;90.90;;;;;;4127596;28;20043;-61
2022/07/25 07:41:11;;;;;;;3.92;1.70;;;36.70;90.50;;;;;;4123561;28;20519;-62
2022/07/25 07:43:15;;;;;;;3.55;1.50;;;36.70;90.30;;;;;;4128805;28;20043;-63
2022/07/25 07:45:22;;;;;;;2.72;1.75;;;36.60;90.10;;;;;;4130541;28;20145;-61
2022/07/25 07:47:28;;;;;;;1.92;1.50;;;36.60;90.40;;;;;;4130959;28;20269;-60
2022/07/25 07:49:32;;;;;;;2.88;1.75;;;36.60;90.60;;;;;;4143333;28;20061;-61
2022/07/25 07:51:41;;;;;;;2.00;1.40;;;36.60;90.30;;;;;;4138762;28;20052;-61
2022/07/25 07:56:05;;;;;;;2.90;1.67;;;36.60;90.20;;;;;;4130353;28;20560;-63
2022/07/25 07:58:17;;;;;;;2.17;1.40;;;36.50;90.20;;;;;;4130493;28;20065;-62
2022/07/25 08:00:22;;;;;;;2.40;1.60;;;36.30;88.50;;;;;;4128638;28;20129;-62
2022/07/25 08:02:26;;;;;;;2.65;1.55;;;36.30;90.50;;;;;;4129962;28;20042;-62
2022/07/25 08:04:32;;;;;;;1.60;1.50;;;36.40;90.40;;;;;;4128826;28;20444;-62
2022/07/25 08:06:41;;;;;;;2.55;1.85;;;36.50;90.30;;;;;;4128660;28;20113;-62
2022/07/25 08:08:46;;;;;;;2.75;1.80;;;36.60;90.10;;;;;;4130318;28;20058;-60
2022/07/25 08:10:52;;;;;;;2.92;1.60;;;36.50;90.50;;;;;;4130272;28;20053;-62
2022/07/25 08:13:03;;;;;;;2.20;1.48;;;36.50;90.40;;;;;;4129010;28;20052;-61
2022/07/25 08:15:08;;;;;;;2.40;1.38;;;36.50;90.60;;;;;;4130132;28;20527;-61
2022/07/25 08:17:15;;;;;;;2.35;1.60;;;36.50;90.70;;;;;;4130356;28;20405;-61
2022/07/25 08:19:20;;;;;;;3.45;1.50;;;36.50;90.60;;;;;;4129905;28;20054;-61
2022/07/25 08:21:25;;;;;;;4.40;1.90;;;36.50;90.80;;;;;;4129967;28;20272;-61
2022/07/25 08:23:34;;;;;;;1.95;1.50;;;36.50;90.40;;;;;;4130011;28;20070;-61
2022/07/25 08:25:40;;;;;;;5.32;1.52;;;36.40;90.30;;;;;;4129640;28;20141;-61
2022/07/25 08:27:45;;;;;;;3.70;1.80;;;36.30;89.70;;;;;;4130091;28;20496;-61
2022/07/25 08:29:52;;;;;;;1.85;1.40;;;36.30;90.10;;;;;;4144598;28;20050;-62
2022/07/25 08:31:58;;;;;;;3.45;1.30;;;36.10;89.90;;;;;;4111153;28;20054;-62
2022/07/25 08:34:03;;;;;;;3.70;1.70;;;36.00;89.90;;;;;;4129492;28;20043;-63
2022/07/25 08:36:10;;;;;;;3.05;1.70;;;35.90;90.60;;;;;;4129883;28;20057;-63
2022/07/25 08:38:17;;;;;;;2.47;1.52;;;35.90;90.80;;;;;;4145347;28;20410;-62
2022/07/25 08:40:22;;;;;;;2.88;1.33;;;35.90;90.90;;;;;;4128006;28;20117;-63
2022/07/25 08:42:28;;;;;;;2.40;1.60;;;35.90;90.60;;;;;;4129695;28;20497;-62
2022/07/25 08:44:36;;;;;;;3.42;1.75;;;35.80;90.40;;;;;;4080071;29;20066;-62
2022/07/25 08:46:41;;;;;;;1.83;1.40;;;35.70;90.40;;;;;;4129761;28;20058;-63
2022/07/25 08:48:45;;;;;;;1.70;1.48;;;35.80;90.60;;;;;;4129567;28;20138;-61
2022/07/25 08:50:53;;;;;;;1.85;1.55;;;36.00;90.10;;;;;;4129177;28;20586;-62
2022/07/25 08:52:57;;;;;;;3.40;1.60;;;35.90;89.20;;;;;;4112504;28;20113;-62
2022/07/25 08:55:24;;;;;;;1.60;1.50;;;35.80;90.10;;;;;;4113461;28;20050;-62
2022/07/25 08:57:31;;;;;;;2.35;1.63;;;35.70;90.20;;;;;;4113563;28;20061;-63
2022/07/25 08:59:35;;;;;;;1.63;1.40;;;35.70;90.00;;;;;;4113010;28;20271;-63
2022/07/25 09:01:41;;;;;;;3.63;1.70;;;35.70;90.00;;;;;;4113436;28;20405;-61
2022/07/25 09:03:48;;;;;;;2.65;1.50;;;35.70;90.20;;;;;;4113846;28;20073;-62
2022/07/25 09:05:52;;;;;;;2.47;1.70;;;35.90;90.20;;;;;;4111703;28;20513;-62
2022/07/25 09:08:09;;;;;;;2.40;1.60;;;35.70;90.30;;;;;;4113399;28;20070;-62
2022/07/25 09:10:21;;;;;;;2.47;1.60;;;35.80;90.50;;;;;;4113176;28;20142;-64
2022/07/25 09:12:30;;;;;;;2.75;1.38;;;35.90;90.50;;;;;;4113318;28;20537;-63
2022/07/25 09:14:42;;;;;;;1.83;1.40;;;35.90;90.40;;;;;;4113110;28;20626;-63
2022/07/25 09:16:49;;;;;;;2.72;1.65;;;35.90;90.60;;;;;;4113209;28;20043;-63
2022/07/25 09:19:04;;;;;;;2.22;1.60;;;36.00;90.60;;;;;;4113318;28;20051;-62
2022/07/25 09:21:13;;;;;;;5.25;1.60;;;36.00;90.80;;;;;;4129364;28;20046;-62
2022/07/25 09:23:30;;;;;;;1.55;1.45;;;36.00;90.40;;;;;;4129184;28;20072;-63
2022/07/25 09:25:38;;;;;;;2.40;1.70;;;35.90;90.50;;;;;;4128985;28;20050;-63
2022/07/25 09:27:42;;;;;;;3.28;1.60;;;35.90;90.30;;;;;;4129488;28;20432;-61
2022/07/25 09:29:51;;;;;;;2.97;2.00;;;35.90;90.10;;;;;;4127542;28;20210;-63
2022/07/25 09:31:57;;;;;;;3.42;2.08;;;35.90;89.80;;;;;;4128847;28;20042;-62
2022/07/25 09:34:06;;;;;;;2.75;2.20;;;35.80;90.50;;;;;;4129032;28;20042;-62
2022/07/25 09:36:15;;;;;;;3.47;1.90;;;35.70;90.60;;;;;;4094423;29;20426;-62
2022/07/25 09:38:19;;;;;;;5.07;2.50;;;35.70;90.70;;;;;;4129189;28;20054;-62
2022/07/25 09:40:24;;;;;;;2.63;1.77;;;35.70;90.90;;;;;;4128880;28;20046;-62
2022/07/25 09:42:31;;;;;;;4.00;1.98;;;35.70;90.80;;;;;;4128698;28;20058;-62
2022/07/25 09:44:35;;;;;;;1.70;1.45;;;35.60;90.90;;;;;;4129019;28;20133;-63
2022/07/25 09:46:40;;;;;;;2.40;1.65;;;35.70;90.80;;;;;;4128829;28;20047;-62
2022/07/25 09:48:47;;;;;;;5.55;1.90;;;35.70;91.10;;;;;;4128253;28;20053;-61
2022/07/25 09:50:52;;;;;;;4.80;1.83;;;35.60;91.30;;;;;;4126997;28;20117;-62
2022/07/25 09:53:01;;;;;;;2.95;1.92;;;35.50;91.50;;;;;;4112636;28;20133;-63
2022/07/25 09:55:09;;;;;;;2.50;1.60;;;35.50;91.80;;;;;;4111031;28;20053;-63
2022/07/25 09:57:14;;;;;;;3.55;1.48;;;35.60;91.90;;;;;;4135953;28;20045;-62
2022/07/25 09:59:19;;;;;;;2.35;1.70;;;35.50;91.60;;;;;;4133857;28;20409;-63
2022/07/25 10:01:27;;;;;;;5.18;1.90;;;35.50;91.80;;;;;;4135146;28;20045;-61
2022/07/25 10:03:47;;;;;;;4.60;1.70;;;35.30;91.90;;;;;;4135520;28;20076;-61
2022/07/25 10:06:16;;;;;;;5.65;1.80;;;35.30;91.80;;;;;;4134457;28;20056;-60
2022/07/25 10:08:23;;;;;;;2.97;1.80;;;35.30;91.60;;;;;;4134760;28;20076;-63
2022/07/25 10:10:29;;;;;;;3.05;2.00;;;35.20;91.70;;;;;;4135352;28;20054;-62
2022/07/25 10:12:37;;;;;;;3.03;2.13;;;35.10;91.30;;;;;;4135614;28;20555;-61
2022/07/25 10:14:51;;;;;;;4.53;2.00;;;35.10;91.50;;;;;;4133894;28;20124;-62
2022/07/25 10:16:56;;;;;;;4.28;2.22;;;35.00;91.40;;;;;;4151687;28;20053;-62
2022/07/25 10:19:01;;;;;;;5.28;2.25;;;34.90;91.10;;;;;;4135791;28;20049;-61
2022/07/25 10:21:11;;;;;;;3.22;2.00;;;34.90;91.40;;;;;;4101860;28;20345;-62
2022/07/25 10:23:28;;;;;;;2.80;2.10;;;34.90;91.30;;;;;;4131658;28;20042;-62
2022/07/25 10:25:32;;;;;;;4.13;2.00;;;34.90;91.30;;;;;;4131276;28;20037;-62
2022/07/25 10:27:42;;;;;;;4.03;2.15;;;34.90;91.40;;;;;;4132917;28;20046;-62
2022/07/25 10:29:52;;;;;;;3.38;2.20;;;34.90;91.50;;;;;;4135139;28;20548;-60
2022/07/25 10:32:05;;;;;;;5.00;2.35;;;34.90;92.10;;;;;;4133981;28;20064;-61
2022/07/25 10:34:13;;;;;;;4.75;1.70;;;34.80;92.10;;;;;;4135360;28;20263;-62
2022/07/25 10:36:18;;;;;;;4.40;1.95;;;34.70;92.30;;;;;;4142219;28;20053;-62
2022/07/25 10:38:27;;;;;;;2.50;1.77;;;34.60;92.60;;;;;;4131713;28;20046;-62
2022/07/25 10:40:37;;;;;;;2.20;1.97;;;34.60;92.80;;;;;;4131622;28;20501;-62
2022/07/25 10:42:44;;;;;;;2.67;2.00;;;34.40;93.00;;;;;;4137415;28;20396;-62
2022/07/25 10:44:52;;;;;;;2.75;1.90;;;34.50;93.00;;;;;;4128878;28;20615;-61
2022/07/25 10:47:11;;;;;;;3.97;1.90;;;34.40;93.30;;;;;;4132955;28;20068;-63
2022/07/25 10:49:24;;;;;;;2.42;2.03;;;34.30;94.20;;;;;;4159810;28;20522;-61
2022/07/25 10:51:35;;;;;;;4.32;1.90;;;34.30;94.20;;;;;;4133532;28;21061;-62
2022/07/25 10:53:46;;;;;;;3.20;1.90;;;34.30;94.30;;;;;;4135836;28;20050;-62
2022/07/25 10:56:03;;;;;;;3.63;1.88;;;34.20;94.50;;;;;;4134881;28;20148;-61
2022/07/25 10:58:11;;;;;;;2.30;1.80;;;34.10;94.30;;;;;;4134743;28;20336;-61